createdAt,value
2018-07-11T00:00:07.364Z,99.90
2018-07-11T00:03:11.941Z,99.90
2018-07-11T00:06:17.885Z,99.90
2018-07-11T00:09:22.418Z,99.90
2018-07-11T00:12:26.836Z,99.90
2018-07-11T00:15:31.377Z,99.90
2018-07-11T00:18:35.941Z,99.90
2018-07-11T00:21:40.484Z,99.90
2018-07-11T00:24:45.089Z,99.90
2018-07-11T00:27:49.896Z,99.90
2018-07-11T00:30:54.646Z,99.90
2018-07-11T00:33:59.153Z,99.90
2018-07-11T00:37:04.032Z,99.90
2018-07-11T00:40:08.351Z,99.90
2018-07-11T00:43:12.876Z,99.90
2018-07-11T00:46:18.497Z,99.90
2018-07-11T00:49:23.017Z,99.90
2018-07-11T00:52:27.664Z,99.90
2018-07-11T00:55:32.180Z,99.90
2018-07-11T00:58:40.057Z,99.90
2018-07-11T01:01:44.633Z,99.90
2018-07-11T01:04:49.651Z,99.90
2018-07-11T01:07:54.480Z,99.90
2018-07-11T01:11:01.979Z,99.90
2018-07-11T01:14:06.637Z,99.90
2018-07-11T01:17:16.619Z,99.90
2018-07-11T01:20:21.429Z,99.90
2018-07-11T01:23:26.018Z,99.90
2018-07-11T01:26:32.041Z,99.90
2018-07-11T01:29:36.485Z,99.90
2018-07-11T01:32:41.626Z,99.90
2018-07-11T01:35:46.213Z,99.90
2018-07-11T01:38:51.138Z,99.90
2018-07-11T01:41:55.827Z,99.90
2018-07-11T01:45:00.697Z,99.90
2018-07-11T01:48:05.577Z,99.90
2018-07-11T01:51:10.473Z,99.90
2018-07-11T01:54:15.486Z,99.90
2018-07-11T01:57:20.248Z,99.90
2018-07-11T02:00:25.881Z,99.90
2018-07-11T02:03:30.615Z,99.90
2018-07-11T02:06:35.820Z,99.90
2018-07-11T02:09:41.005Z,99.90
2018-07-11T02:12:45.684Z,99.90
2018-07-11T02:15:51.329Z,99.90
2018-07-11T02:18:55.926Z,99.90
2018-07-11T02:22:00.490Z,99.90
2018-07-11T02:28:09.575Z,99.90
2018-07-11T02:31:14.256Z,99.90
2018-07-11T02:34:22.745Z,99.90
2018-07-11T02:37:27.213Z,99.90
2018-07-11T02:40:31.818Z,99.90
2018-07-11T02:43:36.608Z,99.90
2018-07-11T02:46:46.629Z,99.90
2018-07-11T02:49:51.031Z,99.90
2018-07-11T02:52:55.569Z,99.90
2018-07-11T02:55:59.925Z,99.90
2018-07-11T02:59:04.744Z,99.90
2018-07-11T03:02:09.682Z,99.90
2018-07-11T03:05:14.288Z,99.90
2018-07-11T03:08:19.444Z,99.90
2018-07-11T03:11:23.909Z,99.90
2018-07-11T03:14:28.667Z,99.90
2018-07-11T03:17:33.955Z,99.90
2018-07-11T03:20:44.232Z,99.90
2018-07-11T03:23:48.736Z,99.90
2018-07-11T03:26:53.985Z,99.90
2018-07-11T03:29:58.798Z,99.90
2018-07-11T03:33:03.726Z,99.90
2018-07-11T03:36:08.954Z,99.90
2018-07-11T03:39:13.424Z,99.90
2018-07-11T03:42:18.118Z,99.90
2018-07-11T03:45:22.769Z,99.90
2018-07-11T03:48:27.460Z,99.90
2018-07-11T03:51:31.877Z,99.90
2018-07-11T03:54:36.507Z,99.90
2018-07-11T03:57:42.244Z,99.90
2018-07-11T04:00:46.898Z,99.90
2018-07-11T04:03:51.948Z,99.90
2018-07-11T04:06:56.828Z,99.90
2018-07-11T04:10:01.327Z,99.90
2018-07-11T04:13:08.717Z,99.90
2018-07-11T04:16:13.338Z,99.90
2018-07-11T04:19:17.938Z,99.90
2018-07-11T04:22:22.268Z,99.90
2018-07-11T04:25:26.647Z,99.90
2018-07-11T04:28:31.456Z,99.90
2018-07-11T04:31:36.169Z,99.90
2018-07-11T04:34:40.709Z,99.90
2018-07-11T04:37:45.423Z,99.90
2018-07-11T04:40:50.992Z,99.90
2018-07-11T04:43:55.617Z,99.90
2018-07-11T04:47:00.079Z,99.90
2018-07-11T04:50:04.755Z,99.90
2018-07-11T04:53:11.204Z,99.90
2018-07-11T04:56:16.980Z,99.90
2018-07-11T04:59:21.604Z,99.90
2018-07-11T05:02:26.330Z,99.90
2018-07-11T05:05:31.020Z,99.90
2018-07-11T05:08:35.678Z,99.90
2018-07-11T05:11:40.478Z,99.90
2018-07-11T05:14:45.212Z,99.90
2018-07-11T05:17:49.732Z,99.90
2018-07-11T05:20:54.763Z,99.90
2018-07-11T05:24:01.487Z,99.90
2018-07-11T05:30:23.642Z,99.90
2018-07-11T05:33:28.406Z,99.90
2018-07-11T05:36:33.071Z,99.90
2018-07-11T05:39:37.785Z,99.90
2018-07-11T05:42:42.749Z,99.90
2018-07-11T05:45:47.634Z,99.90
2018-07-11T05:48:52.656Z,99.90
2018-07-11T05:51:57.391Z,99.90
2018-07-11T05:55:02.303Z,99.90
2018-07-11T05:58:06.824Z,99.90
2018-07-11T06:01:11.528Z,99.90
2018-07-11T06:04:16.761Z,99.90
2018-07-11T06:07:21.537Z,99.90
2018-07-11T06:10:49.717Z,99.90
2018-07-11T06:17:22.904Z,99.90
2018-07-11T06:20:29.628Z,99.90
2018-07-11T06:23:38.011Z,99.90
2018-07-11T06:26:44.966Z,99.90
2018-07-11T06:29:51.708Z,99.90
2018-07-11T06:32:58.477Z,99.90
2018-07-11T06:36:04.952Z,99.90
2018-07-11T06:43:54.769Z,99.90
2018-07-11T06:47:03.470Z,99.90
2018-07-11T06:50:08.525Z,99.90
2018-07-11T06:53:13.396Z,99.90
2018-07-11T06:56:18.495Z,99.90
2018-07-11T06:59:22.762Z,99.90
2018-07-11T07:02:28.952Z,99.90
2018-07-11T07:05:34.040Z,99.90
2018-07-11T07:08:39.328Z,99.90
2018-07-11T07:11:44.212Z,99.90
2018-07-11T07:14:48.837Z,99.90
2018-07-11T07:30:14.690Z,99.90
2018-07-11T07:33:32.488Z,99.90
2018-07-11T07:37:05.225Z,99.90
2018-07-11T07:40:13.065Z,99.90
2018-07-11T07:43:20.336Z,99.90
2018-07-11T07:46:25.787Z,99.90
2018-07-11T07:52:38.489Z,99.90
2018-07-11T07:55:43.346Z,99.90
2018-07-11T07:58:48.277Z,99.90
2018-07-11T08:01:53.250Z,99.90
2018-07-11T08:04:59.322Z,99.90
2018-07-11T08:08:05.273Z,99.90
2018-07-11T08:11:32.563Z,99.90
2018-07-11T08:14:52.470Z,99.90
2018-07-11T08:17:58.827Z,99.90
2018-07-11T08:21:10.569Z,99.90
2018-07-11T08:24:26.326Z,99.90
2018-07-11T08:27:42.372Z,99.90
2018-07-11T08:31:07.041Z,99.90
2018-07-11T08:34:21.678Z,99.90
2018-07-11T08:40:33.459Z,99.90
2018-07-11T08:46:17.837Z,97.50
2018-07-11T08:49:56.018Z,90.00
2018-07-11T08:54:16.750Z,87.80
2018-07-11T08:57:36.991Z,91.20
2018-07-11T09:01:09.227Z,88.00
2018-07-11T09:04:39.734Z,90.20
2018-07-11T09:07:54.269Z,96.30
2018-07-11T09:11:09.115Z,95.50
2018-07-11T09:15:29.630Z,97.40
2018-07-11T09:23:01.899Z,98.60
2018-07-11T09:26:09.401Z,99.90
2018-07-11T09:29:14.776Z,99.90
2018-07-11T09:32:19.593Z,99.90
2018-07-11T09:37:10.709Z,99.90
2018-07-11T09:46:10.869Z,99.90
2018-07-11T09:52:51.744Z,99.90
2018-07-11T09:56:00.523Z,99.90
2018-07-11T09:59:07.096Z,99.90
2018-07-11T10:02:17.225Z,99.90
2018-07-11T10:06:05.628Z,99.90
2018-07-11T10:13:06.823Z,99.90
2018-07-11T10:16:24.375Z,99.90
2018-07-11T10:19:37.548Z,99.90
2018-07-11T10:22:49.284Z,99.90
2018-07-11T10:57:41.821Z,96.90
2018-07-11T11:01:05.697Z,96.50
2018-07-11T11:04:03.637Z,94.90
2018-07-11T11:07:19.156Z,99.30
2018-07-11T11:10:26.769Z,96.20
2018-07-11T11:13:35.773Z,92.40
2018-07-11T11:56:55.957Z,97.80
2018-07-11T12:00:00.873Z,99.90
2018-07-11T12:03:05.906Z,98.20
2018-07-11T12:06:10.984Z,97.00
2018-07-11T12:09:17.384Z,97.80
2018-07-11T12:12:22.259Z,98.50
2018-07-11T12:15:26.951Z,97.40
2018-07-11T12:18:32.402Z,99.90
2018-07-11T12:21:37.306Z,99.90
2018-07-11T12:28:05.733Z,95.40
2018-07-11T12:31:11.787Z,97.20
2018-07-11T12:34:53.897Z,96.40
2018-07-11T12:38:12.707Z,94.80
2018-07-11T12:41:52.779Z,97.40
2018-07-11T12:45:00.425Z,96.30
2018-07-11T12:48:11.029Z,94.90
2018-07-11T12:51:19.366Z,96.90
2018-07-11T12:54:27.750Z,95.70
2018-07-11T12:57:45.505Z,95.60
2018-07-11T13:00:54.881Z,95.00
2018-07-11T13:04:00.171Z,94.80
2018-07-11T13:07:12.006Z,94.00
2018-07-11T13:10:18.703Z,93.90
2018-07-11T13:13:26.008Z,93.60
2018-07-11T13:16:32.678Z,93.90
2018-07-11T13:19:39.071Z,93.00
2018-07-11T13:22:44.074Z,93.20
2018-07-11T13:25:59.010Z,92.10
2018-07-11T13:29:05.882Z,90.40
2018-07-11T13:32:21.496Z,90.60
2018-07-11T13:35:50.519Z,92.00
2018-07-11T13:38:56.624Z,90.10
2018-07-11T13:42:03.619Z,88.40
2018-07-11T13:45:20.152Z,91.50
2018-07-11T13:48:32.983Z,88.60
2018-07-11T13:52:08.153Z,89.90
2018-07-11T14:02:56.005Z,90.30
2018-07-11T16:22:45.222Z,96.20
2018-07-11T16:26:10.139Z,97.00
2018-07-11T16:32:34.892Z,96.70
2018-07-11T16:35:41.369Z,97.70
2018-07-11T16:41:08.845Z,97.60
2018-07-11T16:44:28.901Z,97.70
2018-07-11T16:47:34.542Z,99.00
2018-07-11T16:50:40.432Z,98.50
2018-07-11T16:53:45.770Z,99.30
2018-07-11T16:56:50.869Z,99.90
2018-07-11T17:00:06.844Z,99.90
2018-07-11T17:03:13.893Z,99.90
2018-07-11T17:06:18.895Z,99.90
2018-07-11T17:09:25.265Z,99.90
2018-07-11T17:12:30.188Z,99.90
2018-07-11T17:15:35.002Z,99.90
2018-07-11T17:18:45.435Z,99.90
2018-07-11T17:21:50.219Z,99.90
2018-07-11T17:24:54.697Z,99.90
2018-07-11T17:28:02.332Z,99.90
2018-07-11T17:31:07.100Z,99.90
2018-07-11T17:34:11.896Z,99.90
2018-07-11T17:37:21.011Z,99.90
2018-07-11T17:40:26.269Z,99.90
2018-07-11T17:43:37.081Z,99.90
2018-07-11T17:46:41.506Z,99.90
2018-07-11T17:49:54.508Z,99.90
2018-07-11T17:53:12.977Z,99.90
2018-07-11T17:56:22.812Z,99.90
2018-07-11T17:59:36.802Z,99.90
2018-07-11T18:02:48.196Z,99.90
2018-07-11T18:06:04.687Z,99.90
2018-07-11T18:09:11.083Z,99.90
2018-07-11T18:12:27.422Z,99.90
2018-07-11T18:15:37.322Z,99.90
2018-07-11T18:19:48.809Z,99.90
2018-07-11T18:23:00.082Z,99.90
2018-07-11T18:26:16.669Z,99.90
2018-07-11T18:29:29.652Z,99.90
2018-07-11T18:33:41.750Z,99.90
2018-07-11T18:37:00.064Z,99.90
2018-07-11T18:40:11.485Z,99.90
2018-07-11T18:43:32.582Z,99.90
2018-07-11T18:46:46.479Z,99.90
2018-07-11T18:52:05.721Z,99.90
2018-07-11T18:55:44.100Z,99.90
2018-07-11T18:58:57.829Z,99.90
2018-07-11T19:02:41.208Z,99.90
2018-07-11T19:05:56.065Z,99.90
2018-07-11T19:09:07.726Z,99.90
2018-07-11T19:12:24.888Z,99.90
2018-07-11T19:15:37.682Z,99.90
2018-07-11T19:18:56.451Z,99.90
2018-07-11T19:22:09.423Z,99.90
2018-07-11T19:25:27.119Z,99.90
2018-07-11T19:29:38.552Z,99.90
2018-07-11T19:33:03.184Z,99.90
2018-07-11T19:37:17.422Z,99.90
2018-07-11T19:41:08.443Z,99.90
2018-07-11T19:44:20.008Z,99.90
2018-07-11T19:50:11.358Z,99.90
2018-07-11T19:53:30.354Z,99.90
2018-07-11T19:56:41.520Z,99.90
2018-07-11T19:59:46.326Z,99.90
2018-07-11T20:02:51.057Z,99.90
2018-07-11T20:05:55.527Z,99.90
2018-07-11T20:09:00.262Z,99.90
2018-07-11T20:12:05.423Z,99.90
2018-07-11T20:15:10.852Z,99.90
2018-07-11T20:18:15.552Z,99.90
2018-07-11T20:21:21.053Z,99.90
2018-07-11T20:24:26.047Z,99.90
2018-07-11T20:27:30.852Z,99.90
2018-07-11T20:30:48.766Z,99.90
2018-07-11T20:33:53.435Z,99.90
2018-07-11T20:36:58.424Z,99.90
2018-07-11T20:40:03.452Z,99.90
2018-07-11T20:43:08.232Z,99.90
2018-07-11T20:46:13.326Z,99.90
2018-07-11T20:49:23.583Z,99.90
2018-07-11T20:52:28.188Z,99.90
2018-07-11T20:55:32.882Z,99.90
2018-07-11T20:58:48.799Z,99.90
2018-07-11T21:02:04.522Z,99.90
2018-07-11T21:05:20.023Z,99.90
2018-07-11T21:09:45.320Z,99.90
2018-07-11T21:13:01.510Z,99.90
2018-07-11T21:16:19.083Z,99.90
2018-07-11T21:19:23.558Z,99.90
2018-07-11T21:22:28.301Z,99.90
2018-07-11T21:25:33.378Z,99.90
2018-07-11T21:28:38.188Z,99.90
2018-07-11T21:31:42.715Z,99.90
2018-07-11T21:34:47.483Z,99.90
2018-07-11T21:37:52.122Z,99.90
2018-07-11T21:40:56.881Z,99.90
2018-07-11T21:44:01.753Z,99.90
2018-07-11T21:47:06.781Z,99.90
2018-07-11T21:50:11.359Z,99.90
2018-07-11T21:53:16.357Z,99.90
2018-07-11T21:56:21.391Z,99.90
2018-07-11T21:59:26.299Z,99.90
2018-07-11T22:02:31.413Z,99.90
2018-07-11T22:08:40.799Z,99.90
2018-07-11T22:11:45.452Z,99.90
2018-07-11T22:14:50.216Z,99.90
2018-07-11T22:18:06.207Z,99.90
2018-07-11T22:21:10.358Z,99.90
2018-07-11T22:24:13.503Z,99.90
2018-07-11T22:27:16.789Z,99.90
2018-07-11T22:30:20.096Z,99.90
2018-07-11T22:33:23.428Z,99.90
2018-07-11T22:36:26.733Z,99.90
2018-07-11T22:39:30.045Z,99.90
2018-07-11T22:42:33.610Z,99.90
2018-07-11T22:45:36.918Z,99.90
2018-07-11T22:48:40.488Z,99.90
2018-07-11T22:51:43.787Z,99.90
2018-07-11T22:54:47.065Z,99.90
2018-07-11T22:57:50.604Z,99.90
2018-07-11T23:00:53.784Z,99.90
2018-07-11T23:03:57.031Z,99.90
2018-07-11T23:07:00.488Z,99.90
2018-07-11T23:10:03.866Z,99.90
2018-07-11T23:13:07.314Z,99.90
2018-07-11T23:16:10.515Z,99.90
2018-07-11T23:19:14.787Z,99.90
2018-07-11T23:22:18.201Z,99.90
2018-07-11T23:25:21.599Z,99.90
2018-07-11T23:28:24.625Z,99.90
2018-07-11T23:31:28.218Z,99.90
2018-07-11T23:34:31.795Z,99.90
2018-07-11T23:37:35.204Z,99.90
2018-07-11T23:40:38.644Z,99.90
2018-07-11T23:43:41.880Z,99.90
2018-07-11T23:46:45.150Z,99.90
2018-07-11T23:49:48.444Z,99.90
2018-07-11T23:52:51.762Z,99.90
2018-07-11T23:55:55.116Z,99.90
2018-07-11T23:58:58.273Z,99.90
